createdAt,value
2023-02-14T00:08:00.910Z,89.24
2023-02-14T00:18:08.328Z,89.28
2023-02-14T00:28:15.497Z,89.39
2023-02-14T00:38:22.699Z,89.35
2023-02-14T00:48:29.702Z,89.31
2023-02-14T00:58:36.897Z,89.21
2023-02-14T01:08:44.025Z,89.30
2023-02-14T01:18:52.153Z,89.34
2023-02-14T01:29:00.035Z,89.38
2023-02-14T01:39:10.228Z,89.35
2023-02-14T01:49:19.948Z,89.27
2023-02-14T01:59:26.386Z,89.32
2023-02-14T02:09:31.654Z,89.39
2023-02-14T02:19:55.186Z,89.53
2023-02-14T02:30:36.004Z,89.48
2023-02-14T02:40:44.010Z,89.61
2023-02-14T02:51:13.185Z,89.45
2023-02-14T03:01:22.144Z,89.47
2023-02-14T03:11:29.949Z,89.51
2023-02-14T03:21:35.392Z,89.52
2023-02-14T03:31:46.283Z,89.53
2023-02-14T03:41:54.599Z,89.59
2023-02-14T03:52:04.023Z,89.62
2023-02-14T04:02:16.860Z,89.45
2023-02-14T04:12:37.166Z,89.56
2023-02-14T04:22:46.474Z,89.52
2023-02-14T04:32:53.499Z,89.52
2023-02-14T04:43:00.720Z,89.57
2023-02-14T04:53:07.996Z,89.48
2023-02-14T05:03:15.464Z,89.44
2023-02-14T05:13:23.235Z,89.61
2023-02-14T05:23:30.661Z,89.75
2023-02-14T05:33:38.371Z,89.70
2023-02-14T05:43:45.830Z,89.69
2023-02-14T05:53:53.268Z,89.67
2023-02-14T06:04:00.527Z,89.76
2023-02-14T06:14:08.429Z,89.81
2023-02-14T06:24:15.625Z,89.91
2023-02-14T06:34:22.828Z,89.97
2023-02-14T06:44:30.450Z,89.99
2023-02-14T06:54:38.127Z,89.88
2023-02-14T07:04:45.218Z,89.97
2023-02-14T07:14:52.379Z,90.01
2023-02-14T07:24:59.726Z,90.23
2023-02-14T07:35:05.840Z,90.26
2023-02-14T07:45:21.135Z,90.15
2023-02-14T07:55:29.609Z,90.11
2023-02-14T08:05:37.059Z,90.22
2023-02-14T08:16:02.402Z,90.23
2023-02-14T08:26:08.975Z,90.27
2023-02-14T08:36:18.351Z,90.10
2023-02-14T08:46:25.598Z,90.04
2023-02-14T08:56:33.496Z,89.85
2023-02-14T09:06:40.615Z,89.91
2023-02-14T09:16:47.795Z,89.85
2023-02-14T09:26:55.960Z,89.52
2023-02-14T09:37:04.881Z,89.36
2023-02-14T09:47:13.868Z,89.45
2023-02-14T09:57:22.499Z,89.29
2023-02-14T10:07:30.035Z,89.16
2023-02-14T10:17:36.916Z,88.53
2023-02-14T10:27:46.892Z,88.14
2023-02-14T10:37:54.595Z,87.95
2023-02-14T10:48:00.112Z,88.01
2023-02-14T10:58:13.288Z,87.64
2023-02-14T11:08:20.164Z,87.40
2023-02-14T11:18:30.140Z,87.25
2023-02-14T11:28:41.788Z,87.10
2023-02-14T11:38:59.732Z,86.41
2023-02-14T11:49:17.248Z,86.54
2023-02-14T11:59:29.338Z,86.55
2023-02-14T12:09:40.895Z,85.96
2023-02-14T12:19:50.764Z,85.76
2023-02-14T12:30:04.346Z,85.54
2023-02-14T12:40:12.222Z,85.18
2023-02-14T12:50:44.835Z,85.13
2023-02-14T13:00:49.898Z,85.13
2023-02-14T13:10:56.142Z,85.17
2023-02-14T13:21:06.432Z,84.57
2023-02-14T13:31:15.321Z,84.22
2023-02-14T13:41:22.896Z,83.93
2023-02-14T13:51:47.533Z,83.88
2023-02-14T14:01:54.920Z,83.63
2023-02-14T14:12:02.224Z,83.11
2023-02-14T14:22:08.811Z,83.40
2023-02-14T14:32:28.100Z,83.50
2023-02-14T14:42:40.221Z,83.62
2023-02-14T14:52:51.160Z,83.37
2023-02-14T15:03:02.564Z,83.06
2023-02-14T15:13:32.739Z,82.91
2023-02-14T15:23:39.960Z,83.13
2023-02-14T15:33:47.647Z,83.42
2023-02-14T15:43:57.537Z,83.25
2023-02-14T15:54:07.881Z,83.35
2023-02-14T16:04:15.388Z,83.45
2023-02-14T16:14:31.007Z,83.30
2023-02-14T16:24:37.481Z,83.71
2023-02-14T16:34:47.603Z,83.72
2023-02-14T16:44:55.579Z,83.77
2023-02-14T16:55:04.042Z,83.89
2023-02-14T17:05:08.659Z,83.88
2023-02-14T17:15:13.902Z,84.07
2023-02-14T17:25:21.112Z,84.14
2023-02-14T17:35:28.692Z,84.10
2023-02-14T17:45:35.768Z,84.24
2023-02-14T17:55:42.881Z,84.11
2023-02-14T18:05:50.214Z,84.15
2023-02-14T18:15:57.355Z,84.25
2023-02-14T18:26:07.552Z,84.44
2023-02-14T18:36:17.316Z,84.54
2023-02-14T18:46:26.731Z,84.40
2023-02-14T18:56:33.530Z,84.39
2023-02-14T19:06:42.395Z,84.43
2023-02-14T19:16:50.835Z,84.59
2023-02-14T19:26:59.135Z,84.66
2023-02-14T19:37:06.946Z,84.63
2023-02-14T19:47:25.620Z,84.64
2023-02-14T19:57:36.931Z,84.58
2023-02-14T20:07:43.754Z,84.58
2023-02-14T20:17:50.939Z,84.73
2023-02-14T20:38:05.800Z,84.62
2023-02-14T20:48:11.898Z,84.74
2023-02-14T20:58:19.609Z,84.53
2023-02-14T21:08:25.781Z,84.79
2023-02-14T21:28:39.495Z,84.79
2023-02-14T21:38:47.054Z,84.71
2023-02-14T21:49:12.720Z,84.59
2023-02-14T21:59:19.764Z,84.52
2023-02-14T22:09:26.969Z,84.52
2023-02-14T22:19:35.554Z,84.80
2023-02-14T22:29:42.818Z,84.76
2023-02-14T22:39:50.503Z,84.76
2023-02-14T22:49:59.379Z,84.77
2023-02-14T23:00:11.869Z,84.85
2023-02-14T23:10:18.207Z,84.67
2023-02-14T23:20:43.076Z,84.61
2023-02-14T23:30:50.224Z,84.82
2023-02-14T23:41:15.241Z,84.88
2023-02-14T23:51:22.537Z,84.81
